createdAt,value
2019-01-18T00:00:19.955Z,0
2019-01-18T00:01:29.044Z,0
2019-01-18T00:02:38.112Z,0
2019-01-18T00:03:46.925Z,0
2019-01-18T00:04:56.047Z,0
2019-01-18T00:06:05.394Z,0
2019-01-18T00:07:14.470Z,0
2019-01-18T00:08:23.538Z,0
2019-01-18T00:09:32.653Z,0
2019-01-18T00:10:41.848Z,0
2019-01-18T00:11:50.919Z,0
2019-01-18T00:13:00.025Z,0
2019-01-18T00:14:08.822Z,0
2019-01-18T00:15:17.906Z,0
2019-01-18T00:16:27.347Z,0
2019-01-18T00:17:36.433Z,0
2019-01-18T00:18:46.308Z,0
2019-01-18T00:19:55.404Z,0
2019-01-18T00:21:04.253Z,0
2019-01-18T00:22:13.438Z,0
2019-01-18T00:23:22.241Z,0
2019-01-18T00:24:31.335Z,0
2019-01-18T00:25:40.985Z,0
2019-01-18T00:26:50.053Z,0
2019-01-18T00:27:59.245Z,0
2019-01-18T00:29:08.334Z,0
2019-01-18T00:30:17.165Z,0
2019-01-18T00:31:26.250Z,0
2019-01-18T00:32:35.053Z,0
2019-01-18T00:33:44.778Z,0
2019-01-18T00:34:53.853Z,0
2019-01-18T00:36:02.675Z,0
2019-01-18T00:37:11.785Z,0
2019-01-18T00:38:20.891Z,0
2019-01-18T00:39:29.759Z,0
2019-01-18T00:40:38.857Z,0
2019-01-18T00:41:48.220Z,0
2019-01-18T00:42:57.316Z,0
2019-01-18T00:44:06.389Z,0
2019-01-18T00:45:15.327Z,0
2019-01-18T00:46:24.149Z,0
2019-01-18T00:47:32.959Z,0
2019-01-18T00:48:42.029Z,0
2019-01-18T00:49:51.637Z,0
2019-01-18T00:51:00.815Z,0
2019-01-18T00:52:09.906Z,0
2019-01-18T00:53:18.719Z,0
2019-01-18T00:54:28.080Z,0
2019-01-18T00:55:37.183Z,0
2019-01-18T00:56:46.375Z,0
2019-01-18T00:57:55.187Z,0
2019-01-18T00:59:04.280Z,0
2019-01-18T01:00:13.639Z,0
2019-01-18T01:01:22.736Z,0
2019-01-18T01:02:31.564Z,0
2019-01-18T01:03:40.663Z,0
2019-01-18T01:04:49.772Z,0
2019-01-18T01:05:58.583Z,0
2019-01-18T01:07:07.661Z,0
2019-01-18T01:08:16.495Z,0
2019-01-18T01:09:25.291Z,0
2019-01-18T01:10:34.376Z,0
2019-01-18T01:11:43.459Z,0
2019-01-18T01:12:52.288Z,0
2019-01-18T01:14:01.673Z,0
2019-01-18T01:15:10.779Z,0
2019-01-18T01:16:20.398Z,0
2019-01-18T01:17:29.469Z,0
2019-01-18T01:18:38.526Z,0
2019-01-18T01:19:47.724Z,0
2019-01-18T01:20:56.804Z,0
2019-01-18T01:22:05.888Z,0
2019-01-18T01:23:14.714Z,0
2019-01-18T01:24:23.792Z,0
2019-01-18T01:25:32.710Z,0
2019-01-18T01:26:42.337Z,0
2019-01-18T01:27:51.403Z,0
2019-01-18T01:29:00.229Z,0
2019-01-18T01:30:09.296Z,0
2019-01-18T01:31:18.156Z,0
2019-01-18T01:32:27.211Z,0
2019-01-18T01:33:36.024Z,0
2019-01-18T01:34:45.087Z,0
2019-01-18T01:35:54.438Z,0
2019-01-18T01:37:03.541Z,0
2019-01-18T01:38:12.656Z,0
2019-01-18T01:39:22.031Z,0
2019-01-18T01:40:31.101Z,0
2019-01-18T01:41:39.926Z,0
2019-01-18T01:42:49.133Z,0
2019-01-18T01:43:58.207Z,0
2019-01-18T01:45:07.020Z,0
2019-01-18T01:46:15.850Z,0
2019-01-18T01:47:24.678Z,0
2019-01-18T01:48:33.855Z,0
2019-01-18T01:49:42.916Z,0
2019-01-18T01:50:51.754Z,0
2019-01-18T01:52:01.094Z,0
2019-01-18T01:53:10.708Z,0
2019-01-18T01:54:19.844Z,0
2019-01-18T01:55:28.686Z,0
2019-01-18T01:56:37.510Z,0
2019-01-18T01:57:46.884Z,0
2019-01-18T01:58:55.980Z,0
2019-01-18T02:00:04.881Z,0
2019-01-18T02:01:14.497Z,0
2019-01-18T02:02:23.571Z,0
2019-01-18T02:03:32.650Z,0
2019-01-18T02:04:41.454Z,0
2019-01-18T02:05:50.589Z,0
2019-01-18T02:06:59.685Z,0
2019-01-18T02:08:09.037Z,0
2019-01-18T02:09:18.770Z,0
2019-01-18T02:10:28.398Z,0
2019-01-18T02:11:37.250Z,0
2019-01-18T02:12:46.611Z,0
2019-01-18T02:13:55.440Z,0
2019-01-18T02:15:04.530Z,0
2019-01-18T02:16:14.127Z,0
2019-01-18T02:17:23.005Z,0
2019-01-18T02:18:32.090Z,0
2019-01-18T02:19:41.174Z,0
2019-01-18T02:20:50.012Z,0
2019-01-18T02:21:59.079Z,0
2019-01-18T02:23:08.690Z,0
2019-01-18T02:24:17.511Z,0
2019-01-18T02:25:26.862Z,0
2019-01-18T02:26:35.679Z,0
2019-01-18T02:27:44.783Z,0
2019-01-18T02:28:53.717Z,0
2019-01-18T02:30:03.924Z,0
2019-01-18T02:31:12.738Z,0
2019-01-18T02:32:22.078Z,0
2019-01-18T02:33:30.919Z,0
2019-01-18T02:34:40.272Z,0
2019-01-18T02:35:49.106Z,0
2019-01-18T02:36:58.468Z,0
2019-01-18T02:38:07.580Z,0
2019-01-18T02:39:16.923Z,0
2019-01-18T02:40:26.401Z,0
2019-01-18T02:41:35.755Z,0
2019-01-18T02:42:44.854Z,0
2019-01-18T02:43:54.216Z,0
2019-01-18T02:45:03.303Z,0
2019-01-18T02:46:12.174Z,0
2019-01-18T02:47:21.265Z,0
2019-01-18T02:48:30.354Z,0
2019-01-18T02:49:39.708Z,0
2019-01-18T02:50:48.538Z,0
2019-01-18T02:51:57.952Z,0
2019-01-18T02:53:06.773Z,0
2019-01-18T02:54:15.606Z,0
2019-01-18T02:55:31.026Z,0
2019-01-18T02:56:39.863Z,0
2019-01-18T02:57:48.959Z,0
2019-01-18T02:58:57.778Z,0
2019-01-18T03:00:12.213Z,0
2019-01-18T03:01:21.298Z,0
2019-01-18T03:02:30.416Z,0
2019-01-18T03:03:39.829Z,0
2019-01-18T03:04:48.921Z,0
2019-01-18T03:05:58.043Z,0
2019-01-18T03:07:07.388Z,0
2019-01-18T03:08:16.213Z,0
2019-01-18T03:09:25.414Z,0
2019-01-18T03:10:34.248Z,0
2019-01-18T03:11:43.592Z,0
2019-01-18T03:12:52.701Z,0
2019-01-18T03:14:01.796Z,0
2019-01-18T03:15:10.794Z,0
2019-01-18T03:16:19.593Z,0
2019-01-18T03:17:28.423Z,0
2019-01-18T03:18:37.249Z,0
2019-01-18T03:19:46.603Z,0
2019-01-18T03:20:55.439Z,0
2019-01-18T03:22:04.530Z,0
2019-01-18T03:23:13.859Z,0
2019-01-18T03:24:22.975Z,0
2019-01-18T03:25:32.629Z,0
2019-01-18T03:26:42.007Z,0
2019-01-18T03:27:51.090Z,0
2019-01-18T03:28:59.920Z,0
2019-01-18T03:30:23.482Z,0
2019-01-18T03:31:32.579Z,0
2019-01-18T03:32:41.975Z,0
2019-01-18T03:33:51.365Z,0
2019-01-18T03:35:00.480Z,0
2019-01-18T03:36:09.307Z,0
2019-01-18T03:37:18.222Z,0
2019-01-18T03:38:27.075Z,0
2019-01-18T03:39:36.188Z,0
2019-01-18T03:40:45.025Z,0
2019-01-18T03:41:53.842Z,0
2019-01-18T03:43:02.808Z,0
2019-01-18T03:44:11.918Z,0
2019-01-18T03:45:21.029Z,0
2019-01-18T03:46:30.100Z,0
2019-01-18T03:47:38.911Z,0
2019-01-18T03:48:48.001Z,0
2019-01-18T03:49:56.816Z,0
2019-01-18T03:51:05.624Z,0
2019-01-18T03:52:14.439Z,0
2019-01-18T03:53:23.289Z,0
2019-01-18T03:54:32.234Z,0
2019-01-18T03:55:41.590Z,0
2019-01-18T03:56:51.252Z,0
2019-01-18T03:58:00.367Z,0
2019-01-18T03:59:09.461Z,0
2019-01-18T04:00:25.637Z,0
2019-01-18T04:01:35.061Z,0
2019-01-18T04:02:44.444Z,0
2019-01-18T04:03:53.513Z,0
2019-01-18T04:05:02.449Z,0
2019-01-18T04:06:11.336Z,0
2019-01-18T04:07:20.156Z,0
2019-01-18T04:08:29.760Z,0
2019-01-18T04:09:38.600Z,0
2019-01-18T04:10:47.951Z,0
2019-01-18T04:11:56.772Z,0
2019-01-18T04:13:06.129Z,0
2019-01-18T04:14:15.776Z,0
2019-01-18T04:15:24.883Z,0
2019-01-18T04:16:33.698Z,0
2019-01-18T04:17:42.575Z,0
2019-01-18T04:18:52.211Z,0
2019-01-18T04:20:01.318Z,0
2019-01-18T04:21:10.144Z,0
2019-01-18T04:22:19.220Z,0
2019-01-18T04:23:28.074Z,0
2019-01-18T04:24:37.178Z,0
2019-01-18T04:25:46.251Z,0
2019-01-18T04:26:55.345Z,0
2019-01-18T04:28:04.452Z,0
2019-01-18T04:29:13.930Z,0
2019-01-18T04:30:23.289Z,0
2019-01-18T04:31:40.223Z,0
2019-01-18T04:32:49.030Z,0
2019-01-18T04:33:58.127Z,0
2019-01-18T04:35:07.295Z,0
2019-01-18T04:36:16.394Z,0
2019-01-18T04:37:25.235Z,0
2019-01-18T04:38:34.330Z,0
2019-01-18T04:39:43.408Z,0
2019-01-18T04:40:52.554Z,0
2019-01-18T04:42:01.660Z,0
2019-01-18T04:43:10.752Z,0
2019-01-18T04:44:20.396Z,0
2019-01-18T04:45:29.763Z,0
2019-01-18T04:46:38.569Z,0
2019-01-18T04:47:47.462Z,0
2019-01-18T04:48:56.553Z,0
2019-01-18T04:50:06.167Z,0
2019-01-18T04:51:15.499Z,0
2019-01-18T04:52:24.350Z,0
2019-01-18T04:53:35.123Z,0
2019-01-18T04:54:43.947Z,0
2019-01-18T04:55:53.020Z,0
2019-01-18T04:57:02.373Z,0
2019-01-18T04:58:11.461Z,0
2019-01-18T04:59:20.552Z,0
2019-01-18T05:00:29.394Z,0
2019-01-18T05:01:38.192Z,0
2019-01-18T05:02:47.033Z,0
2019-01-18T05:03:56.106Z,0
2019-01-18T05:05:05.181Z,0
2019-01-18T05:06:14.012Z,0
2019-01-18T05:07:23.351Z,0
2019-01-18T05:08:32.201Z,0
2019-01-18T05:09:41.636Z,0
2019-01-18T05:10:50.462Z,0
2019-01-18T05:11:59.550Z,0
2019-01-18T05:13:08.621Z,0
2019-01-18T05:14:17.698Z,0
2019-01-18T05:15:26.798Z,0
2019-01-18T05:16:35.917Z,0
2019-01-18T05:17:45.295Z,0
2019-01-18T05:18:54.647Z,0
2019-01-18T05:20:03.736Z,0
2019-01-18T05:21:12.897Z,0
2019-01-18T05:22:22.009Z,0
2019-01-18T05:23:30.835Z,0
2019-01-18T05:24:39.649Z,0
2019-01-18T05:25:56.317Z,0
2019-01-18T05:27:05.527Z,0
2019-01-18T05:28:14.886Z,0
2019-01-18T05:29:23.749Z,0
2019-01-18T05:30:33.104Z,0
2019-01-18T05:31:41.935Z,0
2019-01-18T05:32:50.893Z,0
2019-01-18T05:34:00.501Z,0
2019-01-18T05:35:09.331Z,0
2019-01-18T05:36:18.169Z,0
2019-01-18T05:37:27.249Z,0
2019-01-18T05:38:36.542Z,0
2019-01-18T05:39:45.905Z,0
2019-01-18T05:40:54.985Z,0
2019-01-18T05:42:03.798Z,0
2019-01-18T05:43:12.896Z,0
2019-01-18T05:44:22.044Z,0
2019-01-18T05:45:30.864Z,0
2019-01-18T05:46:39.939Z,0
2019-01-18T05:47:49.280Z,0
2019-01-18T05:48:58.631Z,0
2019-01-18T05:50:07.473Z,0
2019-01-18T05:51:16.560Z,0
2019-01-18T05:52:25.627Z,0
2019-01-18T05:53:34.715Z,0
2019-01-18T05:54:43.550Z,0
2019-01-18T05:55:52.650Z,0
2019-01-18T05:57:01.746Z,0
2019-01-18T05:58:11.132Z,0
2019-01-18T05:59:20.529Z,0
2019-01-18T06:00:29.486Z,0
2019-01-18T06:01:38.593Z,0
2019-01-18T06:02:47.705Z,0
2019-01-18T06:03:56.802Z,0
2019-01-18T06:05:05.891Z,0
2019-01-18T06:06:14.711Z,0
2019-01-18T06:07:23.523Z,0
2019-01-18T06:08:32.594Z,0
2019-01-18T06:09:41.442Z,0
2019-01-18T06:10:50.789Z,0
2019-01-18T06:11:59.615Z,0
2019-01-18T06:13:09.022Z,0
2019-01-18T06:14:17.830Z,0
2019-01-18T06:15:26.679Z,0
2019-01-18T06:16:36.035Z,0
2019-01-18T06:17:45.181Z,0
2019-01-18T06:18:54.881Z,0
2019-01-18T06:20:03.715Z,0
2019-01-18T06:21:12.814Z,0
2019-01-18T06:22:21.928Z,0
2019-01-18T06:23:31.018Z,0
2019-01-18T06:24:40.153Z,0
2019-01-18T06:25:49.266Z,0
2019-01-18T06:26:58.613Z,0
2019-01-18T06:28:07.980Z,0
2019-01-18T06:29:17.060Z,0
2019-01-18T06:30:26.185Z,0
2019-01-18T06:31:35.331Z,0
2019-01-18T06:32:44.402Z,0
2019-01-18T06:33:53.477Z,0
2019-01-18T06:35:02.576Z,0
2019-01-18T06:36:11.678Z,0
2019-01-18T06:37:21.057Z,0
2019-01-18T06:38:29.872Z,0
2019-01-18T06:39:39.204Z,0
2019-01-18T06:40:48.060Z,0
2019-01-18T06:41:57.491Z,0
2019-01-18T06:43:06.303Z,0
2019-01-18T06:44:15.413Z,0
2019-01-18T06:45:24.486Z,0
2019-01-18T06:46:33.587Z,0
2019-01-18T06:47:42.565Z,0
2019-01-18T06:48:51.982Z,0
2019-01-18T06:50:01.317Z,0
2019-01-18T06:51:10.130Z,0
2019-01-18T06:52:19.240Z,0
2019-01-18T06:53:28.098Z,0
2019-01-18T06:54:37.428Z,0
2019-01-18T06:55:46.779Z,0
2019-01-18T06:56:55.874Z,0
2019-01-18T06:58:04.714Z,0
2019-01-18T06:59:13.930Z,0
2019-01-18T07:00:23.039Z,0
2019-01-18T07:01:32.374Z,0
2019-01-18T07:02:41.208Z,0
2019-01-18T07:03:50.030Z,0
2019-01-18T07:04:58.950Z,0
2019-01-18T07:06:08.036Z,0
2019-01-18T07:07:16.845Z,0
2019-01-18T07:08:26.431Z,0
2019-01-18T07:09:35.227Z,0
2019-01-18T07:10:44.424Z,0
2019-01-18T07:11:53.587Z,0
2019-01-18T07:13:02.427Z,0
2019-01-18T07:14:11.518Z,0
2019-01-18T07:15:20.607Z,0
2019-01-18T07:16:29.431Z,0
2019-01-18T07:17:38.531Z,0
2019-01-18T07:18:47.347Z,0
2019-01-18T07:19:56.679Z,0
2019-01-18T07:21:05.499Z,0
2019-01-18T07:22:14.914Z,0
2019-01-18T07:23:24.013Z,0
2019-01-18T07:24:33.114Z,0
2019-01-18T07:25:41.956Z,0
2019-01-18T07:26:51.548Z,0
2019-01-18T07:28:00.723Z,0
2019-01-18T07:29:09.519Z,0
2019-01-18T07:30:18.323Z,0
2019-01-18T07:31:27.139Z,0
2019-01-18T07:32:36.990Z,0
2019-01-18T07:33:46.099Z,0
2019-01-18T07:34:55.202Z,0
2019-01-18T07:36:04.540Z,0
2019-01-18T07:37:13.877Z,0
2019-01-18T07:38:22.705Z,0
2019-01-18T07:39:31.863Z,0
2019-01-18T07:40:40.720Z,0
2019-01-18T07:41:50.356Z,0
2019-01-18T07:42:59.427Z,0
2019-01-18T07:44:09.034Z,0
2019-01-18T07:45:17.919Z,0
2019-01-18T07:46:27.004Z,0
2019-01-18T07:47:35.809Z,0
2019-01-18T07:48:44.634Z,0
2019-01-18T07:49:53.463Z,0
2019-01-18T07:51:02.825Z,0
2019-01-18T07:52:11.632Z,0
2019-01-18T07:53:21.068Z,0
2019-01-18T07:54:29.896Z,0
2019-01-18T07:55:38.701Z,0
2019-01-18T07:56:47.620Z,0
2019-01-18T07:57:56.431Z,0
2019-01-18T07:59:05.273Z,0
2019-01-18T08:00:14.071Z,0
2019-01-18T08:01:29.192Z,0
2019-01-18T08:02:38.061Z,0
2019-01-18T08:03:47.157Z,0
2019-01-18T08:04:56.494Z,0
2019-01-18T08:06:05.567Z,0
2019-01-18T08:07:14.382Z,0
2019-01-18T08:08:23.465Z,0
2019-01-18T08:09:32.270Z,0
2019-01-18T08:10:41.622Z,0
2019-01-18T08:11:50.722Z,0
2019-01-18T08:12:59.539Z,0
2019-01-18T08:14:08.755Z,0
2019-01-18T08:15:17.575Z,0
2019-01-18T08:16:26.941Z,0
2019-01-18T08:17:35.776Z,0
2019-01-18T08:18:45.397Z,0
2019-01-18T08:19:54.244Z,0
2019-01-18T08:21:03.053Z,0
2019-01-18T08:22:11.878Z,0
2019-01-18T08:23:20.960Z,0
2019-01-18T08:24:30.055Z,0
2019-01-18T08:25:39.442Z,0
2019-01-18T08:26:48.541Z,0
2019-01-18T08:27:57.647Z,0
2019-01-18T08:29:06.482Z,0
2019-01-18T08:30:15.282Z,0
2019-01-18T08:31:31.052Z,0
2019-01-18T08:32:40.155Z,0
2019-01-18T08:33:49.229Z,0
2019-01-18T08:34:58.314Z,0
2019-01-18T08:36:07.129Z,0
2019-01-18T08:37:16.280Z,0
2019-01-18T08:38:25.096Z,0
2019-01-18T08:39:33.938Z,0
2019-01-18T08:40:42.747Z,0
2019-01-18T08:41:51.566Z,0
2019-01-18T08:43:00.648Z,0
2019-01-18T08:44:09.462Z,0
2019-01-18T08:45:18.542Z,0
2019-01-18T08:46:27.610Z,0
2019-01-18T08:47:36.995Z,0
2019-01-18T08:48:45.922Z,0
2019-01-18T08:49:54.742Z,0
2019-01-18T08:51:04.108Z,0
2019-01-18T08:52:12.934Z,4
2019-01-18T08:53:21.761Z,4
2019-01-18T08:54:30.693Z,4
2019-01-18T08:55:39.802Z,4
2019-01-18T08:56:49.173Z,4
2019-01-18T08:57:58.015Z,4
2019-01-18T08:59:07.376Z,4
2019-01-18T09:00:16.288Z,4
2019-01-18T09:01:25.111Z,0
2019-01-18T09:02:34.182Z,0
2019-01-18T09:03:43.565Z,0
2019-01-18T09:04:52.905Z,0
2019-01-18T09:06:02.031Z,0
2019-01-18T09:07:11.120Z,4
2019-01-18T09:08:20.215Z,0
2019-01-18T09:09:29.313Z,0
2019-01-18T09:10:38.721Z,0
2019-01-18T09:11:47.537Z,0
2019-01-18T09:12:56.350Z,0
2019-01-18T09:14:06.721Z,0
2019-01-18T09:15:15.523Z,4
2019-01-18T09:16:24.963Z,4
2019-01-18T09:17:34.364Z,4
2019-01-18T09:18:43.192Z,4
2019-01-18T09:19:52.262Z,0
2019-01-18T09:21:01.355Z,0
2019-01-18T09:22:10.445Z,0
2019-01-18T09:23:19.513Z,0
2019-01-18T09:24:28.598Z,0
2019-01-18T09:25:37.941Z,0
2019-01-18T09:26:47.556Z,0
2019-01-18T09:27:56.394Z,0
2019-01-18T09:29:05.309Z,4
2019-01-18T09:30:14.118Z,4
2019-01-18T09:31:22.949Z,4
2019-01-18T09:32:32.052Z,4
2019-01-18T09:33:41.923Z,4
2019-01-18T09:34:50.772Z,0
2019-01-18T09:35:59.612Z,0
2019-01-18T09:37:08.450Z,0
2019-01-18T09:38:22.306Z,4
2019-01-18T09:39:31.123Z,4
2019-01-18T09:40:40.587Z,4
2019-01-18T09:41:51.002Z,4
2019-01-18T09:43:00.084Z,0
2019-01-18T09:44:09.167Z,0
2019-01-18T09:45:18.001Z,0
2019-01-18T09:46:27.150Z,0
2019-01-18T09:47:36.528Z,0
2019-01-18T09:48:45.657Z,0
2019-01-18T09:49:54.489Z,0
2019-01-18T09:51:04.148Z,0
2019-01-18T09:52:13.049Z,0
2019-01-18T09:53:21.899Z,0
2019-01-18T09:54:30.992Z,0
2019-01-18T09:55:41.188Z,0
2019-01-18T09:56:50.004Z,0
2019-01-18T09:57:59.194Z,0
2019-01-18T09:59:08.266Z,0
2019-01-18T10:00:17.361Z,0
2019-01-18T10:01:26.726Z,0
2019-01-18T10:02:36.339Z,4
2019-01-18T10:03:45.510Z,4
2019-01-18T10:04:54.847Z,4
2019-01-18T10:06:03.942Z,4
2019-01-18T10:07:12.744Z,4
2019-01-18T10:08:21.568Z,0
2019-01-18T10:09:30.569Z,0
2019-01-18T10:10:39.647Z,0
2019-01-18T10:11:48.737Z,0
2019-01-18T10:12:57.834Z,0
2019-01-18T10:14:06.922Z,0
2019-01-18T10:15:15.825Z,0
2019-01-18T10:16:24.645Z,0
2019-01-18T10:17:33.712Z,0
2019-01-18T10:18:43.091Z,0
2019-01-18T10:19:52.690Z,0
2019-01-18T10:21:01.605Z,0
2019-01-18T10:22:10.434Z,0
2019-01-18T10:23:19.251Z,0
2019-01-18T10:24:28.376Z,0
2019-01-18T10:25:37.188Z,0
2019-01-18T10:26:46.509Z,0
2019-01-18T10:27:55.569Z,0
2019-01-18T10:29:04.663Z,0
2019-01-18T10:30:13.726Z,0
2019-01-18T10:31:23.043Z,0
2019-01-18T10:32:31.877Z,0
2019-01-18T10:33:40.939Z,0
2019-01-18T10:34:50.024Z,0
2019-01-18T10:35:59.406Z,0
2019-01-18T10:37:08.495Z,4
2019-01-18T10:38:17.419Z,0
2019-01-18T10:39:26.245Z,0
2019-01-18T10:40:35.313Z,4
2019-01-18T10:41:44.678Z,4
2019-01-18T10:42:53.755Z,4
2019-01-18T10:44:08.206Z,8
2019-01-18T10:45:17.028Z,4
2019-01-18T10:46:26.131Z,12
2019-01-18T10:47:34.951Z,16
2019-01-18T10:48:43.795Z,20
2019-01-18T10:49:53.237Z,16
2019-01-18T10:51:02.312Z,16
2019-01-18T10:52:11.113Z,24
2019-01-18T10:53:19.931Z,20
2019-01-18T10:54:28.993Z,20
2019-01-18T10:55:38.170Z,16
2019-01-18T10:56:47.267Z,16
2019-01-18T10:57:56.345Z,8
2019-01-18T10:59:05.174Z,20
2019-01-18T11:00:14.007Z,28
2019-01-18T11:01:23.677Z,24
2019-01-18T11:02:32.757Z,24
2019-01-18T11:03:41.572Z,24
2019-01-18T11:04:51.174Z,24
2019-01-18T11:06:00.266Z,28
2019-01-18T11:07:09.755Z,32
2019-01-18T11:08:24.005Z,28
2019-01-18T11:09:32.920Z,28
2019-01-18T11:10:41.982Z,36
2019-01-18T11:11:51.104Z,40
2019-01-18T11:13:00.733Z,44
2019-01-18T11:14:09.550Z,44
2019-01-18T11:15:18.625Z,48
2019-01-18T11:16:27.716Z,52
2019-01-18T11:17:37.070Z,56
2019-01-18T11:18:45.907Z,56
2019-01-18T11:19:54.739Z,52
2019-01-18T11:21:03.794Z,52
2019-01-18T11:22:13.141Z,52
2019-01-18T11:23:22.213Z,52
2019-01-18T11:24:31.316Z,48
2019-01-18T11:25:40.565Z,44
2019-01-18T11:26:49.388Z,48
2019-01-18T11:27:58.989Z,48
2019-01-18T11:29:08.065Z,48
2019-01-18T11:30:17.176Z,52
2019-01-18T11:31:29.950Z,60
2019-01-18T11:32:39.027Z,64
2019-01-18T11:33:47.845Z,44
2019-01-18T11:34:56.645Z,20
2019-01-18T11:36:06.067Z,8
2019-01-18T11:37:15.163Z,48
2019-01-18T11:38:24.506Z,28
2019-01-18T11:39:33.603Z,8
2019-01-18T11:40:42.951Z,16
2019-01-18T11:41:51.849Z,60
2019-01-18T11:43:00.672Z,76
2019-01-18T11:44:09.762Z,72
2019-01-18T11:45:18.564Z,80
2019-01-18T11:46:27.445Z,104
2019-01-18T11:47:36.364Z,104
2019-01-18T11:48:45.738Z,112
2019-01-18T11:49:57.072Z,96
2019-01-18T11:51:05.875Z,108
2019-01-18T11:52:15.225Z,124
2019-01-18T11:53:24.885Z,12
2019-01-18T11:54:33.962Z,8
2019-01-18T11:55:42.767Z,88
2019-01-18T11:56:51.589Z,160
2019-01-18T11:58:01.176Z,160
2019-01-18T11:59:10.055Z,164
2019-01-18T12:00:19.138Z,216
2019-01-18T12:01:28.221Z,244
2019-01-18T12:02:37.299Z,244
2019-01-18T12:03:46.386Z,252
2019-01-18T12:04:55.596Z,244
2019-01-18T12:06:04.689Z,120
2019-01-18T12:07:13.509Z,216
2019-01-18T12:08:22.334Z,180
2019-01-18T12:09:31.182Z,140
2019-01-18T12:10:40.314Z,100
2019-01-18T12:11:49.144Z,84
2019-01-18T12:12:58.484Z,60
2019-01-18T12:14:07.847Z,48
2019-01-18T12:15:16.962Z,36
2019-01-18T12:16:25.864Z,32
2019-01-18T12:17:34.972Z,28
2019-01-18T12:18:44.080Z,28
2019-01-18T12:19:53.195Z,28
2019-01-18T12:21:02.017Z,28
2019-01-18T12:22:10.831Z,24
2019-01-18T12:23:19.945Z,24
2019-01-18T12:24:29.027Z,24
2019-01-18T12:25:37.869Z,24
2019-01-18T12:26:46.979Z,24
2019-01-18T12:27:55.805Z,28
2019-01-18T12:29:05.437Z,28
2019-01-18T12:30:14.771Z,28
2019-01-18T12:31:23.577Z,28
2019-01-18T12:32:35.413Z,32
2019-01-18T12:33:44.268Z,28
2019-01-18T12:34:53.631Z,28
2019-01-18T12:36:02.731Z,28
2019-01-18T12:37:12.081Z,28
2019-01-18T12:38:20.899Z,24
2019-01-18T12:39:30.055Z,36
2019-01-18T12:40:39.165Z,24
2019-01-18T12:41:47.988Z,24
2019-01-18T12:42:57.834Z,24
2019-01-18T12:44:06.745Z,24
2019-01-18T12:45:15.918Z,24
2019-01-18T12:46:24.737Z,24
2019-01-18T12:47:33.532Z,24
2019-01-18T12:48:42.363Z,24
2019-01-18T12:49:51.446Z,24
2019-01-18T12:51:00.638Z,24
2019-01-18T12:52:10.465Z,20
2019-01-18T12:53:19.829Z,24
2019-01-18T12:54:28.636Z,24
2019-01-18T12:55:37.721Z,24
2019-01-18T12:56:46.647Z,16
2019-01-18T12:57:56.419Z,8
2019-01-18T12:59:05.239Z,4
2019-01-18T13:00:14.056Z,4
2019-01-18T13:01:22.880Z,4
2019-01-18T13:02:37.723Z,0
2019-01-18T13:03:46.561Z,0
2019-01-18T13:04:55.645Z,0
2019-01-18T13:06:04.722Z,0
2019-01-18T13:07:13.538Z,0
2019-01-18T13:08:23.001Z,0
2019-01-18T13:09:32.077Z,0
2019-01-18T13:10:41.190Z,0
2019-01-18T13:11:50.071Z,0
2019-01-18T13:12:58.882Z,0
2019-01-18T13:14:08.035Z,0
2019-01-18T13:15:16.849Z,0
2019-01-18T13:16:25.665Z,0
2019-01-18T13:17:34.753Z,0
2019-01-18T13:18:43.586Z,0
2019-01-18T13:19:52.751Z,0
2019-01-18T13:21:01.840Z,0
2019-01-18T13:22:10.652Z,0
2019-01-18T13:23:19.742Z,0
2019-01-18T13:24:28.825Z,0
2019-01-18T13:25:38.294Z,0
2019-01-18T13:26:47.377Z,0
2019-01-18T13:27:59.807Z,0
2019-01-18T13:29:09.301Z,0
2019-01-18T13:30:18.379Z,0
2019-01-18T13:31:27.229Z,0
2019-01-18T13:32:41.636Z,0
2019-01-18T13:33:50.850Z,0
2019-01-18T13:34:59.655Z,0
2019-01-18T13:36:09.023Z,4
2019-01-18T13:37:17.826Z,4
2019-01-18T13:38:26.633Z,4
2019-01-18T13:39:35.983Z,4
2019-01-18T13:40:45.071Z,4
2019-01-18T13:41:54.143Z,4
2019-01-18T13:43:03.019Z,4
2019-01-18T13:44:12.640Z,4
2019-01-18T13:45:24.348Z,4
2019-01-18T13:46:33.574Z,4
2019-01-18T13:47:42.396Z,0
2019-01-18T13:48:51.513Z,4
2019-01-18T13:50:00.618Z,4
2019-01-18T13:51:09.705Z,4
2019-01-18T13:52:19.089Z,4
2019-01-18T13:53:28.159Z,0
2019-01-18T13:54:37.059Z,0
2019-01-18T13:55:46.384Z,4
2019-01-18T13:56:55.503Z,4
2019-01-18T13:58:04.855Z,0
2019-01-18T13:59:13.922Z,4
2019-01-18T14:00:22.994Z,4
2019-01-18T14:01:31.818Z,8
2019-01-18T14:02:50.997Z,4
2019-01-18T14:04:00.609Z,4
2019-01-18T14:05:09.705Z,8
2019-01-18T14:06:18.619Z,4
2019-01-18T14:07:27.422Z,8
2019-01-18T14:08:36.482Z,8
2019-01-18T14:09:45.306Z,8
2019-01-18T14:10:54.385Z,8
2019-01-18T14:12:03.552Z,4
2019-01-18T14:13:12.357Z,4
2019-01-18T14:14:21.153Z,8
2019-01-18T14:15:30.247Z,4
2019-01-18T14:16:39.609Z,4
2019-01-18T14:17:49.322Z,0
2019-01-18T14:18:58.427Z,0
2019-01-18T14:20:07.246Z,4
2019-01-18T14:21:19.535Z,4
2019-01-18T14:22:28.348Z,4
2019-01-18T14:23:37.478Z,4
2019-01-18T14:24:46.850Z,4
2019-01-18T14:25:55.671Z,4
2019-01-18T14:27:06.159Z,4
2019-01-18T14:28:15.225Z,0
2019-01-18T14:29:24.415Z,4
2019-01-18T14:30:37.914Z,4
2019-01-18T14:31:46.734Z,4
2019-01-18T14:33:01.870Z,4
2019-01-18T14:34:11.209Z,0
2019-01-18T14:35:20.352Z,0
2019-01-18T14:36:29.184Z,0
2019-01-18T14:37:38.259Z,4
2019-01-18T14:38:47.354Z,4
2019-01-18T14:39:56.191Z,0
2019-01-18T14:41:05.126Z,0
2019-01-18T14:42:13.965Z,0
2019-01-18T14:43:22.782Z,0
2019-01-18T14:44:31.849Z,0
2019-01-18T14:45:40.672Z,0
2019-01-18T14:46:49.495Z,0
2019-01-18T14:47:58.568Z,4
2019-01-18T14:49:07.672Z,4
2019-01-18T14:50:16.498Z,4
2019-01-18T14:51:25.589Z,0
2019-01-18T14:52:34.793Z,0
2019-01-18T14:53:44.148Z,0
2019-01-18T14:54:53.241Z,0
2019-01-18T14:56:02.068Z,0
2019-01-18T14:57:10.882Z,0
2019-01-18T14:58:24.542Z,0
2019-01-18T14:59:33.770Z,0
2019-01-18T15:00:42.869Z,0
2019-01-18T15:01:52.248Z,0
2019-01-18T15:03:06.896Z,0
2019-01-18T15:04:15.823Z,0
2019-01-18T15:05:25.164Z,0
2019-01-18T15:06:34.259Z,0
2019-01-18T15:07:43.325Z,0
2019-01-18T15:08:52.419Z,0
2019-01-18T15:10:07.357Z,0
2019-01-18T15:11:16.455Z,0
2019-01-18T15:12:25.523Z,0
2019-01-18T15:13:34.882Z,0
2019-01-18T15:14:43.989Z,0
2019-01-18T15:15:52.848Z,0
2019-01-18T15:17:01.667Z,0
2019-01-18T15:18:10.508Z,0
2019-01-18T15:19:20.713Z,0
2019-01-18T15:20:29.800Z,0
2019-01-18T15:21:38.904Z,0
2019-01-18T15:22:48.542Z,0
2019-01-18T15:23:57.683Z,0
2019-01-18T15:25:07.044Z,0
2019-01-18T15:26:20.927Z,0
2019-01-18T15:27:30.264Z,0
2019-01-18T15:28:39.078Z,0
2019-01-18T15:29:47.905Z,0
2019-01-18T15:30:57.255Z,0
2019-01-18T15:32:06.064Z,0
2019-01-18T15:33:15.847Z,0
2019-01-18T15:34:24.916Z,0
2019-01-18T15:35:34.018Z,0
2019-01-18T15:36:42.820Z,0
2019-01-18T15:37:51.628Z,0
2019-01-18T15:39:01.253Z,0
2019-01-18T15:40:10.052Z,0
2019-01-18T15:41:18.871Z,0
2019-01-18T15:42:27.953Z,0
2019-01-18T15:43:36.816Z,0
2019-01-18T15:44:45.945Z,0
2019-01-18T15:45:54.746Z,0
2019-01-18T15:47:03.547Z,0
2019-01-18T15:48:12.622Z,0
2019-01-18T15:49:22.225Z,0
2019-01-18T15:50:31.635Z,0
2019-01-18T15:51:40.995Z,0
2019-01-18T15:52:49.815Z,0
2019-01-18T15:53:58.898Z,0
2019-01-18T15:55:07.970Z,0
2019-01-18T15:56:16.856Z,0
2019-01-18T15:57:25.681Z,0
2019-01-18T15:58:34.504Z,0
2019-01-18T15:59:43.327Z,0
2019-01-18T16:00:52.167Z,0
2019-01-18T16:02:01.637Z,0
2019-01-18T16:03:15.781Z,0
2019-01-18T16:04:25.050Z,0
2019-01-18T16:05:34.420Z,0
2019-01-18T16:06:43.519Z,0
2019-01-18T16:07:52.465Z,0
2019-01-18T16:09:01.822Z,0
2019-01-18T16:10:10.893Z,0
2019-01-18T16:11:19.982Z,0
2019-01-18T16:12:29.082Z,0
2019-01-18T16:13:38.261Z,0
2019-01-18T16:14:47.342Z,0
2019-01-18T16:15:56.450Z,0
2019-01-18T16:17:05.798Z,0
2019-01-18T16:18:14.645Z,0
2019-01-18T16:19:23.850Z,0
2019-01-18T16:20:32.944Z,0
2019-01-18T16:21:41.754Z,0
2019-01-18T16:22:50.846Z,0
2019-01-18T16:23:59.962Z,0
2019-01-18T16:25:09.448Z,0
2019-01-18T16:26:18.263Z,0
2019-01-18T16:27:27.088Z,0
2019-01-18T16:28:36.173Z,0
2019-01-18T16:29:44.992Z,0
2019-01-18T16:30:54.132Z,0
2019-01-18T16:32:03.488Z,0
2019-01-18T16:33:12.318Z,0
2019-01-18T16:34:21.916Z,0
2019-01-18T16:35:30.727Z,0
2019-01-18T16:36:39.884Z,0
2019-01-18T16:37:48.995Z,0
2019-01-18T16:38:57.809Z,0
2019-01-18T16:40:07.155Z,0
2019-01-18T16:41:16.246Z,0
2019-01-18T16:42:25.639Z,0
2019-01-18T16:43:34.722Z,0
2019-01-18T16:44:43.553Z,0
2019-01-18T16:45:52.399Z,0
2019-01-18T16:47:01.217Z,0
2019-01-18T16:48:10.398Z,0
2019-01-18T16:49:19.510Z,0
2019-01-18T16:50:28.640Z,0
2019-01-18T16:51:37.475Z,0
2019-01-18T16:52:47.411Z,0
2019-01-18T16:53:56.361Z,0
2019-01-18T16:55:05.731Z,0
2019-01-18T16:56:15.599Z,0
2019-01-18T16:57:24.441Z,0
2019-01-18T16:58:33.280Z,0